Time;durP1;ratioP1;P1;durP2;ratioP2;P2;SDS_P1;SDS_P2;PMS_P1;PMS_P2;Temp;Humidity;BMP_temperature;BMP_pressure;BME280_temperature;BME280_humidity;BME280_pressure;Samples;Min_cycle;Max_cycle;Signal;HPM_P1;HPM_P2
2022/06/01 00:00:30;;;;;;;6.97;4.20;;;;;;;14.91;92.01;94779.09;5053552;28;20255;-79
2022/06/01 00:02:58;;;;;;;9.65;3.45;;;;;;;14.94;91.38;94789.31;5053697;28;20234;-79
2022/06/01 00:05:26;;;;;;;7.20;4.13;;;;;;;14.90;91.50;94772.06;5053488;28;20334;-79
2022/06/01 00:07:53;;;;;;;6.03;4.00;;;;;;;14.81;92.18;94779.63;5052885;28;20224;-79
2022/06/01 00:10:20;;;;;;;6.25;3.80;;;;;;;14.74;92.57;94773.19;5053278;28;20202;-79
2022/06/01 00:12:48;;;;;;;10.38;3.88;;;;;;;14.67;92.12;94771.06;5052786;28;20258;-80
2022/06/01 00:15:17;;;;;;;4.35;3.17;;;;;;;14.73;91.59;94774.34;5052356;28;20262;-79
2022/06/01 00:17:45;;;;;;;7.30;3.95;;;;;;;14.62;92.33;94776.78;5053096;28;20558;-79
2022/06/01 00:20:13;;;;;;;8.63;3.80;;;;;;;14.68;92.04;94774.59;5053360;28;20195;-79
2022/06/01 00:22:40;;;;;;;5.95;3.40;;;;;;;14.74;91.71;94774.00;5053092;28;20783;-79
2022/06/01 00:25:08;;;;;;;4.97;3.53;;;;;;;14.67;92.13;94779.25;5052828;28;20230;-80
2022/06/01 00:27:36;;;;;;;4.65;3.40;;;;;;;14.64;91.51;94782.66;5053241;28;20227;-79
2022/06/01 00:30:04;;;;;;;9.50;3.78;;;;;;;14.67;91.72;94787.44;5052900;28;20234;-79
2022/06/01 00:32:31;;;;;;;8.70;3.13;;;;;;;14.65;91.28;94781.53;5039820;28;20651;-79
2022/06/01 00:35:01;;;;;;;9.10;3.42;;;;;;;14.61;91.57;94786.13;5052107;28;20210;-80
2022/06/01 00:37:28;;;;;;;7.18;3.85;;;;;;;14.61;91.78;94780.66;5052467;28;20238;-80
2022/06/01 00:39:55;;;;;;;6.32;3.63;;;;;;;14.58;91.99;94781.34;5038809;28;20702;-79
2022/06/01 00:42:24;;;;;;;4.22;2.85;;;;;;;14.52;90.74;94771.81;5053460;28;20211;-79
2022/06/01 00:44:52;;;;;;;5.13;2.70;;;;;;;14.33;89.80;94774.41;5066203;28;20231;-79
2022/06/01 00:47:20;;;;;;;7.55;2.63;;;;;;;14.34;89.80;94767.81;5053030;28;20204;-78
2022/06/01 00:49:52;;;;;;;4.50;2.45;;;;;;;14.40;88.78;94769.97;5051924;28;20736;-79
2022/06/01 00:52:35;;;;;;;3.35;2.40;;;;;;;14.32;88.89;94773.59;5051840;28;20216;-79
2022/06/01 00:55:08;;;;;;;9.70;2.70;;;;;;;14.24;88.60;94775.34;5052661;28;20192;-79
2022/06/01 00:57:35;;;;;;;4.40;2.53;;;;;;;14.22;88.17;94780.31;5052722;28;20192;-79
2022/06/01 01:00:06;;;;;;;4.93;2.90;;;;;;;14.12;88.48;94778.09;5052024;28;20223;-79
2022/06/01 01:02:33;;;;;;;2.63;2.08;;;;;;;14.15;87.93;94774.69;5051969;28;20678;-79
2022/06/01 01:05:00;;;;;;;3.88;2.53;;;;;;;14.16;87.95;94776.28;5053991;28;20227;-79
2022/06/01 01:07:29;;;;;;;4.47;2.50;;;;;;;14.20;87.98;94771.72;5054568;28;20223;-79
2022/06/01 01:09:56;;;;;;;4.93;2.58;;;;;;;14.26;87.92;94764.09;5052283;28;20617;-79
2022/06/01 01:12:24;;;;;;;3.63;2.30;;;;;;;14.27;88.19;94770.34;5052247;28;20728;-79
2022/06/01 01:14:51;;;;;;;6.25;2.42;;;;;;;14.30;88.34;94764.19;5052526;28;20206;-79
2022/06/01 01:17:19;;;;;;;8.05;2.17;;;;;;;14.30;88.40;94766.91;5052190;28;20223;-79
2022/06/01 01:19:52;;;;;;;5.45;2.60;;;;;;;14.20;88.79;94763.56;5052061;28;20204;-79
2022/06/01 01:22:38;;;;;;;5.63;2.83;;;;;;;14.28;88.70;94755.56;5051962;28;20765;-79
2022/06/01 01:25:28;;;;;;;3.80;2.50;;;;;;;14.14;89.73;94756.75;5051613;28;20231;-79
2022/06/01 01:28:00;;;;;;;8.00;3.05;;;;;;;13.99;90.52;94743.88;5038508;28;20211;-80
2022/06/01 01:30:48;;;;;;;5.22;2.42;;;;;;;13.85;91.86;94738.03;5051409;28;20223;-78
2022/06/01 01:33:19;;;;;;;7.20;3.38;;;;;;;13.85;92.42;94727.91;5051694;28;20250;-79
2022/06/01 01:35:50;;;;;;;13.57;3.25;;;;;;;13.87;92.78;94735.75;5038975;28;20706;-79
2022/06/01 01:38:23;;;;;;;8.10;2.83;;;;;;;13.88;92.39;94731.88;5051644;28;20238;-79
2022/06/01 01:41:03;;;;;;;5.75;3.08;;;;;;;13.82;92.42;94733.25;5051561;28;20221;-79
2022/06/01 01:43:32;;;;;;;6.25;3.63;;;;;;;13.81;92.61;94720.78;5051607;28;20215;-79
2022/06/01 01:45:59;;;;;;;5.40;3.55;;;;;;;13.97;92.30;94735.25;5051864;28;20211;-80
2022/06/01 01:48:25;;;;;;;5.10;3.15;;;;;;;13.93;92.23;94734.38;5051619;28;20204;-80
2022/06/01 01:50:54;;;;;;;7.80;2.47;;;;;;;13.92;91.72;94727.34;5051859;28;20670;-80
2022/06/01 01:53:20;;;;;;;10.35;3.58;;;;;;;13.93;92.13;94718.03;5051917;28;20259;-80
2022/06/01 01:56:01;;;;;;;5.47;2.92;;;;;;;13.96;91.21;94733.66;5051324;28;20195;-80
2022/06/01 01:58:39;;;;;;;6.18;3.42;;;;;;;13.79;91.30;94733.97;5039701;28;20223;-80
2022/06/01 02:01:13;;;;;;;4.97;2.70;;;;;;;13.71;91.93;94737.59;5051203;28;20600;-80
2022/06/01 02:03:46;;;;;;;7.50;2.83;;;;;;;13.70;92.52;94736.81;5051602;28;20310;-80
2022/06/01 02:06:21;;;;;;;6.18;2.80;;;;;;;13.78;92.13;94737.81;5051502;28;20227;-81
2022/06/01 02:08:53;;;;;;;5.47;2.63;;;;;;;13.92;91.14;94737.44;5051709;28;20286;-81
2022/06/01 02:14:16;;;;;;;5.50;3.00;;;;;;;14.00;89.23;94745.47;5050863;28;20239;-81
2022/06/01 02:16:48;;;;;;;5.63;2.75;;;;;;;13.95;89.47;94737.53;5051415;28;20235;-81
2022/06/01 02:19:20;;;;;;;3.35;2.58;;;;;;;13.80;90.36;94732.84;5051226;28;20666;-81
2022/06/01 02:21:47;;;;;;;3.92;2.90;;;;;;;13.76;90.86;94740.09;5051503;28;20223;-81
2022/06/01 02:24:14;;;;;;;5.68;3.30;;;;;;;13.76;90.16;94737.38;5031538;28;20196;-80
2022/06/01 02:26:41;;;;;;;5.57;2.75;;;;;;;13.76;89.91;94729.22;5043882;28;20204;-81
2022/06/01 02:29:15;;;;;;;4.88;2.60;;;;;;;13.80;89.92;94741.00;5037723;28;20223;-81
2022/06/01 02:31:43;;;;;;;4.05;2.60;;;;;;;13.81;90.02;94742.56;5050737;28;20318;-80
2022/06/01 02:34:12;;;;;;;4.13;2.67;;;;;;;13.88;90.01;94743.56;5050358;28;20273;-81
2022/06/01 02:36:41;;;;;;;6.88;2.85;;;;;;;13.95;89.70;94748.41;5050320;28;20698;-81
2022/06/01 02:39:11;;;;;;;9.68;2.75;;;;;;;13.96;89.74;94747.28;5050703;28;20204;-79
2022/06/01 02:44:24;;;;;;;4.25;2.63;;;;;;;13.99;89.26;94752.03;5050725;28;20324;-79
2022/06/01 02:46:51;;;;;;;5.28;2.92;;;;;;;14.07;89.26;94759.28;5050861;28;20196;-80
2022/06/01 02:49:18;;;;;;;3.30;2.67;;;;;;;14.02;88.67;94754.09;5051047;28;20242;-79
2022/06/01 02:51:46;;;;;;;9.32;2.75;;;;;;;13.77;89.00;94758.81;5050357;28;20199;-79
2022/06/01 02:54:14;;;;;;;6.65;3.45;;;;;;;13.83;88.85;94751.19;5051266;28;20215;-81
2022/06/01 02:56:41;;;;;;;7.97;3.40;;;;;;;13.93;88.53;94756.16;5050542;28;20220;-80
2022/06/01 02:59:08;;;;;;;7.78;3.10;;;;;;;14.09;87.99;94759.72;5051150;28;20200;-80
2022/06/01 03:01:37;;;;;;;7.05;3.22;;;;;;;14.15;88.22;94755.63;5050489;28;20223;-80
2022/06/01 03:04:05;;;;;;;6.38;3.40;;;;;;;14.24;88.28;94753.53;5050547;28;20251;-80
2022/06/01 03:06:33;;;;;;;4.55;3.05;;;;;;;14.43;88.16;94754.84;5037989;28;20242;-78
2022/06/01 03:08:59;;;;;;;4.22;2.97;;;;;;;14.67;87.63;94757.44;5050834;28;20211;-79
2022/06/01 03:11:26;;;;;;;3.67;3.10;;;;;;;15.11;85.73;94749.19;5050390;28;20234;-80
2022/06/01 03:13:53;;;;;;;5.40;3.30;;;;;;;15.09;84.08;94757.72;5050467;28;20254;-80
2022/06/01 03:16:20;;;;;;;8.05;3.15;;;;;;;15.33;82.84;94759.44;5052059;28;20214;-80
2022/06/01 03:18:48;;;;;;;8.48;3.60;;;;;;;15.88;81.18;94765.78;5050178;28;20226;-81
2022/06/01 03:21:16;;;;;;;6.07;3.58;;;;;;;16.01;81.07;94764.50;5050508;28;20219;-81
2022/06/01 03:23:42;;;;;;;9.38;3.50;;;;;;;16.63;78.77;94766.19;5050745;28;20220;-81
2022/06/01 03:26:10;;;;;;;11.93;4.18;;;;;;;17.40;76.58;94768.69;5050969;28;20203;-81
2022/06/01 03:28:37;;;;;;;7.47;4.18;;;;;;;18.31;74.35;94756.66;5050376;28;20224;-82
2022/06/01 03:31:05;;;;;;;15.55;4.47;;;;;;;18.96;70.95;94758.19;5050455;28;20654;-84
2022/06/01 03:33:35;;;;;;;11.88;3.33;;;;;;;19.46;69.12;94756.66;5050467;28;20259;-84
2022/06/01 03:36:03;;;;;;;6.57;3.45;;;;;;;19.63;66.57;94764.28;5050524;28;20227;-84
2022/06/01 03:38:30;;;;;;;5.25;3.63;;;;;;;20.37;65.14;94755.69;5050356;28;20207;-84
2022/06/01 03:40:57;;;;;;;7.75;3.72;;;;;;;20.43;64.76;94748.66;5050303;28;20697;-85
2022/06/01 03:43:24;;;;;;;6.15;4.00;;;;;;;21.02;62.77;94757.47;5050606;28;20200;-84
2022/06/01 03:45:56;;;;;;;6.50;3.85;;;;;;;21.14;62.74;94756.31;5049882;28;20208;-84
2022/06/01 03:48:24;;;;;;;6.32;3.72;;;;;;;21.63;61.80;94747.28;5050921;28;20191;-83
2022/06/01 03:50:51;;;;;;;5.65;3.60;;;;;;;21.89;62.10;94746.06;5051965;28;20738;-83
2022/06/01 03:53:20;;;;;;;7.15;4.13;;;;;;;22.53;59.75;94741.19;5054174;28;20314;-83
2022/06/01 03:55:48;;;;;;;8.88;4.10;;;;;;;23.21;58.00;94751.88;5053848;28;20316;-75
2022/06/01 03:58:16;;;;;;;9.43;4.57;;;;;;;23.53;57.50;94754.44;5053782;28;20204;-82
2022/06/01 04:00:43;;;;;;;8.15;5.05;;;;;;;23.92;54.97;94746.56;5047239;28;20571;-83
2022/06/01 04:03:11;;;;;;;8.63;5.85;;;;;;;23.95;57.01;94745.75;5043588;28;20425;-80
2022/06/01 04:05:38;;;;;;;6.32;5.05;;;;;;;23.88;55.53;94745.84;5052507;28;20655;-86
2022/06/01 04:08:06;;;;;;;11.00;6.82;;;;;;;24.44;54.11;94743.69;5053499;28;20200;-81
2022/06/01 04:10:36;;;;;;;9.52;7.25;;;;;;;24.85;54.22;94748.31;5053545;28;20195;-77
2022/06/01 04:13:03;;;;;;;10.60;7.70;;;;;;;25.20;53.77;94739.53;5053386;28;20285;-79
2022/06/01 04:15:30;;;;;;;12.88;8.02;;;;;;;25.49;51.88;94746.22;5053020;28;20195;-81
2022/06/01 04:17:57;;;;;;;11.25;7.88;;;;;;;26.01;51.53;94747.75;5053021;28;20224;-83
2022/06/01 04:20:24;;;;;;;12.00;8.27;;;;;;;26.05;52.60;94754.81;5053375;28;20195;-80
2022/06/01 04:22:54;;;;;;;10.38;8.35;;;;;;;26.96;48.93;94747.13;5051990;28;20250;-79
2022/06/01 04:25:22;;;;;;;10.52;7.95;;;;;;;26.68;48.83;94746.47;5050432;28;20308;-82
2022/06/01 04:27:50;;;;;;;11.13;6.80;;;;;;;25.59;51.00;94746.44;5046611;28;20227;-87
2022/06/01 04:30:18;;;;;;;17.77;8.23;;;;;;;25.13;52.09;94750.72;5052070;28;20204;-82
2022/06/01 04:32:47;;;;;;;12.38;6.95;;;;;;;25.47;51.19;94759.72;5049795;28;20235;-84
2022/06/01 04:35:15;;;;;;;8.73;6.40;;;;;;;25.20;52.04;94756.16;5045038;28;20231;-80
2022/06/01 04:37:42;;;;;;;10.00;6.55;;;;;;;26.62;48.59;94748.22;5036971;28;20208;-85
2022/06/01 04:40:11;;;;;;;13.02;6.22;;;;;;;26.32;48.38;94756.75;5046340;28;20227;-77
2022/06/01 04:42:39;;;;;;;8.90;5.82;;;;;;;26.36;47.58;94751.91;5050904;28;20228;-80
2022/06/01 04:45:09;;;;;;;7.30;5.38;;;;;;;27.01;47.33;94752.19;5052718;28;20200;-80
2022/06/01 04:47:36;;;;;;;8.98;5.32;;;;;;;27.89;44.56;94749.34;5052521;28;20207;-75
2022/06/01 04:50:03;;;;;;;8.30;5.22;;;;;;;27.74;45.10;94759.28;5052890;28;20280;-82
2022/06/01 04:52:30;;;;;;;12.50;6.25;;;;;;;27.69;45.48;94751.44;5052615;28;20211;-82
2022/06/01 04:54:57;;;;;;;11.32;5.30;;;;;;;27.99;43.95;94753.09;5052558;28;20227;-84
2022/06/01 04:57:24;;;;;;;7.38;5.20;;;;;;;28.41;43.16;94756.78;5052159;28;20711;-83
2022/06/01 04:59:51;;;;;;;8.93;5.00;;;;;;;27.02;45.83;94762.09;5052478;28;20219;-85
2022/06/01 05:02:19;;;;;;;7.95;4.82;;;;;;;26.59;46.88;94765.72;5052769;28;20226;-81
2022/06/01 05:04:46;;;;;;;7.05;4.72;;;;;;;26.80;46.48;94756.94;5052697;28;20227;-81
2022/06/01 05:07:13;;;;;;;5.72;4.80;;;;;;;28.44;44.12;94756.66;5055628;28;20215;-77
2022/06/01 05:09:40;;;;;;;7.28;4.57;;;;;;;28.12;44.20;94756.72;5052480;28;20281;-80
2022/06/01 05:12:07;;;;;;;7.82;5.65;;;;;;;27.75;44.27;94766.41;5052542;28;20232;-79
2022/06/01 05:14:34;;;;;;;8.85;5.63;;;;;;;29.62;41.82;94754.84;5051711;28;20361;-79
2022/06/01 05:17:01;;;;;;;8.77;5.90;;;;;;;29.20;41.74;94764.50;5051368;28;20224;-82
2022/06/01 05:19:29;;;;;;;8.15;5.68;;;;;;;29.81;40.40;94763.41;5039873;28;20731;-83
2022/06/01 05:21:57;;;;;;;8.77;5.70;;;;;;;29.76;40.77;94770.34;5056960;28;20227;-83
2022/06/01 05:24:24;;;;;;;7.97;5.85;;;;;;;30.92;38.45;94764.75;5060678;28;20224;-87
2022/06/01 05:26:53;;;;;;;10.05;6.13;;;;;;;31.19;38.10;94771.81;5052507;28;20656;-84
2022/06/01 05:29:22;;;;;;;11.20;6.63;;;;;;;30.80;39.08;94774.00;5053136;28;20216;-85
2022/06/01 05:31:49;;;;;;;9.95;6.50;;;;;;;32.14;36.31;94762.41;5051759;28;20690;-88
2022/06/01 05:34:16;;;;;;;13.60;6.93;;;;;;;32.29;35.75;94768.22;5051826;28;20242;-85
2022/06/01 05:36:44;;;;;;;8.25;6.68;;;;;;;32.37;35.86;94768.72;5051885;28;20207;-78
2022/06/01 05:39:11;;;;;;;9.85;6.53;;;;;;;31.25;37.28;94769.97;5052030;28;20231;-84
2022/06/01 05:41:37;;;;;;;12.40;6.97;;;;;;;31.05;37.90;94762.66;5051759;28;20204;-87
2022/06/01 05:44:06;;;;;;;13.65;8.38;;;;;;;30.51;38.91;94760.22;5051756;28;20663;-85
2022/06/01 05:46:35;;;;;;;12.98;7.80;;;;;;;30.07;39.26;94756.56;5051848;28;20249;-84
2022/06/01 05:49:02;;;;;;;8.10;6.95;;;;;;;29.92;40.41;94763.84;5051613;28;20666;-80
2022/06/01 05:51:29;;;;;;;12.95;7.30;;;;;;;30.27;39.50;94754.28;5051572;28;20639;-84
2022/06/01 05:53:57;;;;;;;9.55;6.55;;;;;;;31.54;37.20;94748.03;5052150;28;20231;-85
2022/06/01 05:56:24;;;;;;;8.82;6.68;;;;;;;32.46;36.46;94749.84;5050826;28;20273;-88
2022/06/01 05:58:50;;;;;;;11.38;6.78;;;;;;;32.28;36.39;94749.81;5047334;28;20230;-88
2022/06/01 06:01:21;;;;;;;9.70;6.78;;;;;;;32.63;35.57;94746.75;5051438;28;20220;-88
2022/06/01 06:03:48;;;;;;;11.48;7.15;;;;;;;31.74;36.04;94754.03;5052183;28;20238;-82
2022/06/01 06:06:20;;;;;;;8.90;6.40;;;;;;;32.14;35.77;94744.78;5051721;28;20204;-82
2022/06/01 06:08:52;;;;;;;16.27;6.40;;;;;;;32.74;35.47;94747.84;5051944;28;20246;-82
2022/06/01 06:11:21;;;;;;;12.23;6.82;;;;;;;31.71;37.35;94751.38;5051392;28;20293;-81
2022/06/01 06:13:48;;;;;;;11.32;6.78;;;;;;;30.22;39.45;94752.06;5050398;28;20705;-88
2022/06/01 06:16:17;;;;;;;12.25;6.55;;;;;;;30.77;39.83;94758.13;5052179;28;20710;-88
2022/06/01 06:18:44;;;;;;;8.52;5.63;;;;;;;29.31;40.31;94762.16;5051400;28;20692;-83
2022/06/01 06:21:11;;;;;;;8.63;5.78;;;;;;;30.53;38.38;94759.78;5050676;28;20223;-79
2022/06/01 06:23:38;;;;;;;9.55;5.70;;;;;;;31.78;36.87;94754.69;5051360;28;20219;-82
2022/06/01 06:26:05;;;;;;;8.02;5.40;;;;;;;28.75;41.43;94761.81;5043750;28;20220;-83
2022/06/01 06:28:34;;;;;;;10.93;6.25;;;;;;;30.44;38.66;94748.53;5040001;28;20207;-84
2022/06/01 06:31:01;;;;;;;13.50;6.10;;;;;;;29.67;41.12;94745.88;5042098;28;20281;-81
2022/06/01 06:33:29;;;;;;;12.95;6.63;;;;;;;30.13;38.93;94743.59;5048220;28;20223;-82
2022/06/01 06:36:01;;;;;;;12.27;6.82;;;;;;;30.65;38.67;94748.56;5034484;28;20291;-84
2022/06/01 06:38:30;;;;;;;11.68;5.93;;;;;;;30.84;38.94;94735.50;5035435;28;20228;-85
2022/06/01 06:40:58;;;;;;;14.88;6.93;;;;;;;29.18;41.25;94753.00;5040364;28;20199;-84
2022/06/01 06:43:26;;;;;;;10.90;6.43;;;;;;;29.61;41.00;94747.69;5050047;28;20206;-83
2022/06/01 06:46:00;;;;;;;8.23;5.93;;;;;;;30.65;40.71;94740.19;5050941;28;20204;-81
2022/06/01 06:48:27;;;;;;;13.93;6.85;;;;;;;31.16;38.63;94739.94;5046100;28;20421;-82
2022/06/01 06:50:54;;;;;;;9.95;6.38;;;;;;;30.29;40.54;94743.44;5041605;28;20204;-83
2022/06/01 06:53:21;;;;;;;10.75;6.75;;;;;;;27.89;43.85;94752.13;5042203;28;20243;-82
2022/06/01 06:55:48;;;;;;;10.48;6.68;;;;;;;29.29;40.71;94739.50;5041647;28;20590;-84
2022/06/01 06:58:16;;;;;;;11.88;6.45;;;;;;;30.09;40.99;94731.75;5049289;28;20215;-81
2022/06/01 07:00:42;;;;;;;11.02;6.50;;;;;;;29.86;40.49;94743.28;5037743;28;20220;-81
2022/06/01 07:03:11;;;;;;;12.50;6.32;;;;;;;30.29;39.15;94729.47;5050119;28;20199;-82
2022/06/01 07:08:25;;;;;;;11.25;7.18;;;;;;;30.12;41.12;94735.66;5049861;28;20199;-85
2022/06/01 07:10:52;;;;;;;11.43;7.18;;;;;;;29.53;42.41;94737.16;5050237;28;20227;-86
2022/06/01 07:13:19;;;;;;;11.70;6.07;;;;;;;30.37;41.57;94730.75;5049666;28;20231;-85
2022/06/01 07:15:46;;;;;;;14.68;7.53;;;;;;;30.25;40.12;94723.19;5045013;28;20220;-89
2022/06/01 07:18:15;;;;;;;11.55;7.60;;;;;;;29.62;41.14;94738.06;5051040;28;20204;-81
2022/06/01 07:20:42;;;;;;;13.85;7.50;;;;;;;28.38;43.74;94746.50;5050114;28;20207;-81
2022/06/01 07:23:09;;;;;;;13.90;7.50;;;;;;;28.59;43.45;94740.34;5052330;28;20220;-85
2022/06/01 07:25:36;;;;;;;10.88;7.53;;;;;;;29.40;41.82;94717.63;5059039;28;20716;-86
2022/06/01 07:28:03;;;;;;;12.30;7.93;;;;;;;29.37;41.93;94732.47;5062594;28;20224;-81
2022/06/01 07:30:30;;;;;;;11.15;7.22;;;;;;;30.03;41.03;94727.97;5051889;28;20231;-75
2022/06/01 07:32:57;;;;;;;12.65;7.70;;;;;;;28.46;43.00;94742.28;5054566;28;20560;-76
2022/06/01 07:35:25;;;;;;;13.38;7.35;;;;;;;27.27;46.11;94742.84;5055138;28;20235;-78
2022/06/01 07:43:22;;;;;;;17.05;8.27;;;;;;;28.12;44.53;94726.88;5046311;28;20635;-77
2022/06/01 07:45:50;;;;;;;16.63;7.70;;;;;;;27.73;45.60;94735.44;5046625;28;20231;-81
2022/06/01 07:48:18;;;;;;;13.25;7.85;;;;;;;28.81;43.68;94721.81;5045778;28;20578;-77
2022/06/01 07:50:50;;;;;;;15.95;8.20;;;;;;;28.57;44.20;94723.25;5041858;28;20213;-79
2022/06/01 07:53:19;;;;;;;13.73;7.80;;;;;;;27.94;45.04;94730.09;5044289;28;20690;-79
2022/06/01 07:55:46;;;;;;;14.80;8.05;;;;;;;28.10;45.45;94732.09;5042044;28;20559;-77
2022/06/01 07:58:13;;;;;;;13.90;7.88;;;;;;;26.96;48.26;94741.56;5046616;28;20219;-80
2022/06/01 08:00:40;;;;;;;15.93;8.57;;;;;;;27.32;47.11;94734.00;5041016;28;20231;-78
2022/06/01 08:03:11;;;;;;;10.77;7.28;;;;;;;27.93;46.16;94738.91;5052751;28;20203;-82
2022/06/01 08:05:38;;;;;;;11.98;7.72;;;;;;;28.57;44.99;94726.03;5053455;28;20286;-82
2022/06/01 08:08:07;;;;;;;14.15;7.75;;;;;;;29.59;43.62;94722.22;5040068;28;20247;-84
2022/06/01 08:10:35;;;;;;;11.80;7.55;;;;;;;29.44;44.32;94731.50;5053105;28;20208;-80
2022/06/01 08:13:06;;;;;;;14.77;8.07;;;;;;;28.99;43.85;94735.22;5053212;28;20239;-85
2022/06/01 08:15:34;;;;;;;12.70;8.20;;;;;;;28.13;45.65;94734.00;5053086;28;20215;-79
2022/06/01 08:18:01;;;;;;;13.38;8.43;;;;;;;28.48;45.18;94723.13;5052974;28;20223;-84
2022/06/01 08:20:30;;;;;;;14.45;7.93;;;;;;;27.35;47.41;94727.56;5038783;28;20216;-76
2022/06/01 08:22:57;;;;;;;15.95;7.55;;;;;;;27.46;47.10;94730.09;5042699;28;20209;-80
2022/06/01 08:25:26;;;;;;;13.00;7.75;;;;;;;27.41;46.75;94725.84;5039285;28;20204;-78
2022/06/01 08:27:53;;;;;;;16.35;8.00;;;;;;;27.00;47.95;94733.94;5046274;28;20537;-74
2022/06/01 08:30:23;;;;;;;11.00;6.95;;;;;;;27.70;46.88;94730.75;5041088;28;20221;-80
2022/06/01 08:32:51;;;;;;;11.25;7.35;;;;;;;27.66;46.46;94730.03;5042369;28;20243;-76
2022/06/01 08:35:21;;;;;;;13.85;7.53;;;;;;;27.74;46.54;94726.66;5042261;28;20239;-79
2022/06/01 08:37:48;;;;;;;13.32;7.25;;;;;;;26.86;48.20;94724.66;5045977;28;20196;-78
2022/06/01 08:40:18;;;;;;;11.18;6.97;;;;;;;26.18;50.35;94736.31;5045145;28;20197;-82
2022/06/01 08:42:53;;;;;;;13.32;7.60;;;;;;;26.79;49.02;94724.78;5043059;28;20200;-78
2022/06/01 08:45:22;;;;;;;14.00;7.07;;;;;;;27.19;47.18;94722.00;5051973;28;20245;-79
2022/06/01 08:47:49;;;;;;;15.30;6.70;;;;;;;27.33;47.23;94713.31;5050765;28;20200;-81
2022/06/01 08:50:22;;;;;;;13.75;6.43;;;;;;;27.43;47.07;94726.19;5044819;28;20779;-79
2022/06/01 08:52:49;;;;;;;8.48;6.05;;;;;;;27.35;46.34;94716.41;5040306;28;20180;-82
2022/06/01 08:55:17;;;;;;;11.10;6.35;;;;;;;27.22;47.36;94719.09;5045325;28;20231;-82
2022/06/01 08:57:49;;;;;;;13.65;6.80;;;;;;;27.72;46.25;94723.53;5047859;28;20453;-86
2022/06/01 09:00:19;;;;;;;11.05;5.90;;;;;;;26.71;47.79;94726.16;5039618;28;20196;-80
2022/06/01 09:02:55;;;;;;;13.88;7.03;;;;;;;26.45;48.16;94738.22;5052175;28;20214;-81
2022/06/01 09:05:30;;;;;;;13.23;5.70;;;;;;;26.61;49.28;94724.41;5052284;28;20647;-80
2022/06/01 09:08:02;;;;;;;13.70;5.63;;;;;;;26.67;48.67;94722.69;5052177;28;20638;-81
2022/06/01 09:10:46;;;;;;;7.43;5.78;;;;;;;26.80;47.24;94718.03;5051854;28;20316;-84
2022/06/01 09:13:23;;;;;;;10.82;6.32;;;;;;;27.01;48.70;94725.16;5039385;28;20768;-77
2022/06/01 09:15:55;;;;;;;10.30;5.68;;;;;;;26.99;46.27;94721.25;5048671;28;20231;-77
2022/06/01 09:18:27;;;;;;;8.32;5.75;;;;;;;27.23;45.79;94719.88;5050469;28;20231;-78
2022/06/01 09:23:40;;;;;;;6.05;4.25;;;;;;;26.74;44.84;94708.63;5051942;28;20199;-80
2022/06/01 09:26:07;;;;;;;8.00;4.28;;;;;;;26.86;43.50;94719.09;5058886;28;20220;-81
2022/06/01 09:28:40;;;;;;;8.18;4.47;;;;;;;27.59;44.11;94708.75;5054988;28;20277;-79
2022/06/01 09:31:24;;;;;;;12.98;4.30;;;;;;;28.07;42.42;94710.66;5052332;28;20191;-80
2022/06/01 09:33:51;;;;;;;10.15;4.57;;;;;;;28.32;43.38;94709.25;5052470;28;20238;-81
2022/06/01 09:36:28;;;;;;;9.57;5.10;;;;;;;28.37;43.21;94705.94;5052391;28;20557;-84
2022/06/01 09:38:56;;;;;;;8.30;4.45;;;;;;;28.34;43.94;94701.22;5045860;28;20191;-81
2022/06/01 09:41:30;;;;;;;7.43;4.57;;;;;;;28.85;41.54;94691.78;5051635;28;20207;-78
2022/06/01 09:44:01;;;;;;;6.20;4.05;;;;;;;28.34;43.88;94701.22;5059453;28;20190;-77
2022/06/01 09:46:34;;;;;;;8.73;4.65;;;;;;;28.76;44.27;94697.22;5056025;28;20231;-76
2022/06/01 09:49:03;;;;;;;11.65;5.00;;;;;;;28.72;42.11;94701.31;5051354;28;20266;-84
2022/06/01 09:51:34;;;;;;;8.13;4.50;;;;;;;28.49;42.51;94699.59;5051876;28;20612;-85
2022/06/01 09:54:14;;;;;;;8.48;4.60;;;;;;;28.06;42.80;94695.19;5051688;28;20235;-78
2022/06/01 09:56:47;;;;;;;9.43;4.32;;;;;;;28.41;42.35;94695.47;5051998;28;20215;-83
2022/06/01 10:07:48;;;;;;;11.68;3.47;;;;;;;28.29;41.43;94683.81;5048564;28;20202;-84
2022/06/01 10:10:25;;;;;;;7.25;3.70;;;;;;;28.17;39.91;94687.31;5051200;28;20223;-81
2022/06/01 10:12:55;;;;;;;8.48;3.90;;;;;;;28.49;41.38;94680.09;5051124;28;20234;-83
2022/06/01 10:15:31;;;;;;;6.35;3.42;;;;;;;28.72;39.92;94671.44;5048141;28;20227;-87
2022/06/01 10:18:05;;;;;;;6.43;3.60;;;;;;;29.55;39.81;94676.06;5046867;28;20231;-82
2022/06/01 10:20:38;;;;;;;7.65;3.60;;;;;;;30.11;38.28;94676.19;5049794;28;20215;-83
2022/06/01 10:23:13;;;;;;;7.13;4.38;;;;;;;29.63;38.08;94683.78;5050304;28;20649;-83
2022/06/01 10:25:45;;;;;;;6.22;3.22;;;;;;;29.32;35.84;94675.19;5048225;28;20227;-83
2022/06/01 10:28:16;;;;;;;3.90;2.83;;;;;;;28.75;37.17;94681.72;5051141;28;20232;-83
2022/06/01 10:30:51;;;;;;;5.78;2.80;;;;;;;28.13;38.12;94691.44;5050774;28;20198;-80
2022/06/01 10:33:23;;;;;;;5.28;2.47;;;;;;;27.92;36.65;94687.19;5051289;28;20230;-81
2022/06/01 10:35:53;;;;;;;6.25;3.22;;;;;;;28.32;36.57;94684.16;5051307;28;20212;-81
2022/06/01 10:38:25;;;;;;;5.72;2.70;;;;;;;28.68;35.62;94676.34;5037736;28;20266;-86
2022/06/01 10:40:59;;;;;;;5.53;3.20;;;;;;;28.96;36.35;94674.75;5046225;28;20199;-84
2022/06/01 10:43:46;;;;;;;5.70;3.55;;;;;;;28.81;35.03;94673.63;5039247;28;20197;-86
2022/06/01 10:46:36;;;;;;;4.10;2.78;;;;;;;28.00;36.64;94676.66;5057180;28;20215;-84
2022/06/01 10:49:16;;;;;;;4.57;2.45;;;;;;;28.28;34.27;94676.69;5052208;28;20204;-85
2022/06/01 10:51:43;;;;;;;3.00;2.42;;;;;;;28.30;35.19;94674.22;5052311;28;20306;-84
2022/06/01 10:54:18;;;;;;;3.38;2.30;;;;;;;28.38;36.05;94680.41;5051080;28;20231;-82
2022/06/01 10:56:45;;;;;;;8.43;2.70;;;;;;;28.60;34.48;94669.41;5037671;28;20191;-80
2022/06/01 10:59:16;;;;;;;4.50;2.40;;;;;;;29.00;33.92;94661.44;5051245;28;20594;-80
2022/06/01 11:02:00;;;;;;;3.53;2.50;;;;;;;28.92;33.29;94668.50;5054552;28;20667;-85
2022/06/01 11:04:55;;;;;;;6.55;2.50;;;;;;;28.91;35.25;94662.13;5055259;28;20306;-82
2022/06/01 11:07:45;;;;;;;6.38;2.10;;;;;;;28.83;34.53;94660.78;5053325;28;20210;-84
2022/06/01 11:10:22;;;;;;;5.43;2.65;;;;;;;29.00;33.67;94659.44;5054481;28;20702;-81
2022/06/01 11:12:59;;;;;;;7.22;2.58;;;;;;;28.81;33.95;94649.31;5054433;28;20584;-81
2022/06/01 11:15:35;;;;;;;6.43;2.63;;;;;;;29.19;32.92;94648.53;5054169;28;20714;-83
2022/06/01 11:18:08;;;;;;;5.05;2.38;;;;;;;29.11;32.28;94642.38;5055077;28;20219;-79
2022/06/01 11:20:52;;;;;;;6.78;2.47;;;;;;;28.83;33.06;94649.63;5054291;28;20227;-86
2022/06/01 11:23:36;;;;;;;4.10;2.03;;;;;;;29.62;32.25;94637.53;5055194;28;20220;-82
2022/06/01 11:26:10;;;;;;;5.55;2.90;;;;;;;30.11;33.81;94639.84;5042508;28;20651;-82
2022/06/01 11:29:00;;;;;;;4.72;2.35;;;;;;;30.01;32.42;94630.63;5059530;28;20192;-84
2022/06/01 11:31:29;;;;;;;2.88;2.40;;;;;;;29.78;32.13;94638.63;5056366;28;20227;-77
2022/06/01 11:34:03;;;;;;;6.90;3.00;;;;;;;30.03;32.33;94630.19;5054549;28;20208;-82
2022/06/01 11:36:38;;;;;;;5.60;3.05;;;;;;;30.03;32.95;94627.38;5054363;28;20215;-82
2022/06/01 11:39:18;;;;;;;5.55;3.10;;;;;;;30.21;33.71;94621.91;5054428;28;20191;-82
2022/06/01 11:41:54;;;;;;;6.53;2.55;;;;;;;29.86;33.06;94631.53;5054275;28;20642;-84
2022/06/01 11:44:30;;;;;;;5.00;2.78;;;;;;;29.50;33.05;94629.97;5054377;28;20192;-83
2022/06/01 11:47:01;;;;;;;6.57;2.35;;;;;;;29.41;32.46;94635.44;5054174;28;20605;-82
2022/06/01 11:49:36;;;;;;;5.82;2.50;;;;;;;29.85;32.88;94624.41;5054518;28;20223;-81
2022/06/01 11:52:30;;;;;;;8.38;4.45;;;;;;;29.53;32.34;94622.69;5053626;28;20215;-81
2022/06/01 11:55:11;;;;;;;4.85;2.38;;;;;;;30.10;32.81;94612.34;5054314;28;20222;-85
2022/06/01 11:57:47;;;;;;;4.18;2.63;;;;;;;29.74;32.06;94610.03;5053847;28;20227;-82
2022/06/01 12:00:19;;;;;;;3.53;2.22;;;;;;;30.26;32.65;94615.75;5053839;28;20211;-82
2022/06/01 12:02:50;;;;;;;4.20;2.70;;;;;;;30.35;32.19;94610.22;5054333;28;20227;-80
2022/06/01 12:05:30;;;;;;;4.10;2.00;;;;;;;29.38;30.02;94616.03;5054646;28;20192;-84
2022/06/01 12:08:01;;;;;;;3.03;1.85;;;;;;;28.89;31.77;94608.78;5049056;28;20215;-87
2022/06/01 12:10:30;;;;;;;4.90;2.05;;;;;;;28.86;32.37;94608.91;5052150;28;20188;-73